Time;durP1;ratioP1;P1;durP2;ratioP2;P2;SDS_P1;SDS_P2;PMS_P1;PMS_P2;Temp;Humidity;BMP_temperature;BMP_pressure;BME280_temperature;BME280_humidity;BME280_pressure;Samples;Min_cycle;Max_cycle;Signal;HPM_P1;HPM_P2
2022/10/04 00:02:26;;;;;;;8.90;5.50;;;9.00;99.90;;;;;;5093347;28;20932;-74
2022/10/04 00:05:02;;;;;;;6.07;5.00;;;8.90;99.90;;;;;;5093515;28;20450;-74
2022/10/04 00:07:34;;;;;;;6.70;5.60;;;8.90;99.90;;;;;;5093541;28;20471;-74
2022/10/04 00:10:20;;;;;;;6.00;4.85;;;8.90;99.90;;;;;;5093685;28;20417;-74
2022/10/04 00:12:55;;;;;;;6.43;5.10;;;9.00;99.90;;;;;;5092946;28;20382;-73
2022/10/04 00:15:38;;;;;;;6.05;5.25;;;9.00;99.90;;;;;;5092781;28;20451;-74
2022/10/04 00:18:10;;;;;;;5.35;4.85;;;9.00;99.90;;;;;;5093358;28;20471;-73
2022/10/04 00:21:02;;;;;;;5.68;5.07;;;8.90;99.90;;;;;;5093410;28;20382;-74
2022/10/04 00:23:41;;;;;;;6.00;4.55;;;8.90;99.90;;;;;;5073558;28;20388;-74
2022/10/04 00:26:14;;;;;;;5.90;5.30;;;8.80;99.90;;;;;;5073062;28;20833;-74
2022/10/04 00:28:46;;;;;;;5.90;5.30;;;8.80;99.90;;;;;;5055220;28;20392;-74
2022/10/04 00:31:25;;;;;;;5.93;5.35;;;8.80;99.90;;;;;;5092662;28;20465;-74
2022/10/04 00:33:52;;;;;;;7.07;5.40;;;8.70;99.90;;;;;;5072437;28;20762;-74
2022/10/04 00:36:24;;;;;;;5.80;5.30;;;8.70;99.90;;;;;;5054701;28;20384;-74
2022/10/04 00:39:08;;;;;;;6.55;5.95;;;8.70;99.90;;;;;;5054580;28;20396;-73
2022/10/04 00:41:42;;;;;;;5.72;5.22;;;8.60;99.90;;;;;;5072333;28;20415;-74
2022/10/04 00:44:16;;;;;;;5.80;5.30;;;8.50;99.90;;;;;;5071986;28;20867;-74
2022/10/04 00:46:44;;;;;;;6.30;5.70;;;8.40;99.90;;;;;;5054575;28;20384;-74
2022/10/04 00:49:12;;;;;;;9.18;5.80;;;8.30;99.90;;;;;;5091750;28;20394;-74
2022/10/04 00:51:51;;;;;;;6.88;5.10;;;8.40;99.90;;;;;;5092590;28;20425;-74
2022/10/04 00:54:34;;;;;;;8.82;5.50;;;8.40;99.90;;;;;;5092041;28;20486;-74
2022/10/04 00:57:17;;;;;;;6.47;5.20;;;8.30;99.90;;;;;;5092504;28;20378;-74
2022/10/04 00:59:57;;;;;;;6.53;5.40;;;8.20;99.90;;;;;;5074253;28;20390;-74
2022/10/04 01:02:35;;;;;;;7.82;5.25;;;8.30;99.90;;;;;;5092305;28;20390;-73
2022/10/04 01:05:13;;;;;;;9.00;5.30;;;8.30;99.90;;;;;;5092002;28;20923;-74
2022/10/04 01:07:45;;;;;;;6.22;5.45;;;8.30;99.90;;;;;;5091982;28;20390;-74
2022/10/04 01:10:20;;;;;;;6.55;5.28;;;8.30;99.90;;;;;;5092393;28;20812;-74
2022/10/04 01:13:14;;;;;;;6.20;5.30;;;8.30;99.90;;;;;;5073484;28;20390;-74
2022/10/04 01:15:49;;;;;;;7.72;5.55;;;8.30;99.90;;;;;;5092126;28;20385;-74
2022/10/04 01:18:28;;;;;;;6.18;5.57;;;8.20;99.90;;;;;;5091947;28;20401;-74
2022/10/04 01:21:08;;;;;;;6.45;5.85;;;8.20;99.90;;;;;;5091725;28;20481;-73
2022/10/04 01:23:36;;;;;;;9.00;5.73;;;8.20;99.90;;;;;;5075545;28;20383;-73
2022/10/04 01:26:25;;;;;;;6.60;5.90;;;8.20;99.90;;;;;;5071737;28;20419;-74
2022/10/04 01:28:57;;;;;;;6.50;5.90;;;8.20;99.90;;;;;;5053574;28;20943;-74
2022/10/04 01:31:30;;;;;;;7.60;5.75;;;8.10;99.90;;;;;;5078294;28;20404;-73
2022/10/04 01:33:58;;;;;;;8.38;5.40;;;8.20;99.90;;;;;;5073215;28;20386;-74
2022/10/04 01:36:24;;;;;;;6.60;5.47;;;8.20;99.90;;;;;;5091464;28;20455;-73
2022/10/04 01:38:50;;;;;;;8.68;5.95;;;8.40;99.90;;;;;;5091420;28;20817;-74
2022/10/04 01:41:20;;;;;;;6.35;5.05;;;8.40;99.90;;;;;;5091372;28;20409;-74
2022/10/04 01:43:49;;;;;;;5.55;4.70;;;8.50;99.90;;;;;;5091176;28;20388;-74
2022/10/04 01:46:29;;;;;;;6.95;4.88;;;8.50;99.90;;;;;;5091335;28;20888;-74
2022/10/04 01:48:58;;;;;;;5.60;4.80;;;8.40;99.90;;;;;;5091522;28;20425;-74
2022/10/04 01:51:33;;;;;;;5.27;4.77;;;8.50;99.90;;;;;;5091332;28;20397;-74
2022/10/04 01:54:09;;;;;;;7.25;5.10;;;8.30;99.90;;;;;;5091181;28;20393;-74
2022/10/04 01:56:51;;;;;;;5.18;4.68;;;8.40;99.90;;;;;;5091330;28;20756;-74
2022/10/04 01:59:33;;;;;;;5.65;5.10;;;8.30;99.90;;;;;;5090936;28;20410;-73
2022/10/04 02:02:14;;;;;;;6.60;5.07;;;8.30;99.90;;;;;;5091231;28;20469;-73
2022/10/04 02:04:41;;;;;;;6.55;5.00;;;8.20;99.90;;;;;;5091000;28;20386;-74
2022/10/04 02:07:12;;;;;;;5.53;4.95;;;8.30;99.90;;;;;;5091207;28;20378;-74
2022/10/04 02:09:42;;;;;;;6.88;5.55;;;8.30;99.90;;;;;;5073607;28;20390;-73
2022/10/04 02:12:09;;;;;;;6.47;5.75;;;8.20;99.90;;;;;;5091109;28;20443;-74
2022/10/04 02:14:38;;;;;;;5.53;5.03;;;8.10;99.90;;;;;;5090578;28;20393;-73
2022/10/04 02:17:09;;;;;;;5.00;4.60;;;8.10;99.90;;;;;;5091138;28;20386;-73
2022/10/04 02:19:39;;;;;;;5.78;5.28;;;8.00;99.90;;;;;;5091394;28;20901;-73
2022/10/04 02:22:07;;;;;;;7.20;5.03;;;8.00;99.90;;;;;;5069418;28;20806;-74
2022/10/04 02:24:36;;;;;;;5.70;4.90;;;8.00;99.90;;;;;;5070410;28;20398;-73
2022/10/04 02:27:02;;;;;;;6.20;5.15;;;8.00;99.90;;;;;;5070666;28;20479;-73
2022/10/04 02:29:28;;;;;;;6.65;5.78;;;7.90;99.90;;;;;;5085113;28;20883;-73
2022/10/04 02:34:39;;;;;;;7.60;5.50;;;7.90;99.90;;;;;;5090369;28;20883;-74
2022/10/04 02:37:06;;;;;;;6.05;5.20;;;7.80;99.90;;;;;;5090602;28;20386;-73
2022/10/04 02:39:46;;;;;;;8.13;5.40;;;7.80;99.90;;;;;;5090522;28;20389;-74
2022/10/04 02:42:17;;;;;;;5.88;5.28;;;7.90;99.90;;;;;;5090427;28;20436;-74
2022/10/04 02:44:51;;;;;;;7.25;5.32;;;7.80;99.90;;;;;;5089462;28;20404;-74
2022/10/04 02:47:21;;;;;;;6.05;5.55;;;7.90;99.90;;;;;;5090557;28;20381;-74
2022/10/04 02:49:58;;;;;;;6.13;5.05;;;7.80;99.90;;;;;;5090542;28;20378;-74
2022/10/04 02:52:30;;;;;;;6.50;5.82;;;7.90;99.90;;;;;;5089699;28;20382;-73
2022/10/04 02:55:23;;;;;;;6.70;6.00;;;7.90;99.90;;;;;;5090134;28;20393;-74
2022/10/04 02:57:51;;;;;;;8.60;7.00;;;8.00;99.90;;;;;;5090259;28;20826;-74
2022/10/04 03:00:27;;;;;;;7.38;6.47;;;8.00;99.90;;;;;;5090014;28;20876;-73
2022/10/04 03:03:18;;;;;;;8.85;6.60;;;7.90;99.90;;;;;;5090029;28;20377;-74
2022/10/04 03:05:57;;;;;;;7.80;5.67;;;8.00;99.90;;;;;;5089866;28;20388;-74
2022/10/04 03:08:23;;;;;;;6.60;5.82;;;8.00;99.90;;;;;;5089936;28;20394;-74
2022/10/04 03:10:49;;;;;;;5.78;5.28;;;8.30;99.90;;;;;;5072092;28;20879;-74
2022/10/04 03:13:18;;;;;;;7.93;5.55;;;8.20;99.90;;;;;;5089832;28;20459;-74
2022/10/04 03:15:43;;;;;;;6.37;5.77;;;8.10;99.90;;;;;;5089702;28;20482;-73
2022/10/04 03:18:10;;;;;;;6.03;5.47;;;8.00;99.90;;;;;;5089156;28;20476;-73
2022/10/04 03:20:38;;;;;;;6.00;5.00;;;8.00;99.90;;;;;;5089923;28;20390;-74
2022/10/04 03:23:04;;;;;;;6.40;5.63;;;8.00;99.90;;;;;;5059915;28;20395;-74
2022/10/04 03:25:48;;;;;;;6.20;4.80;;;8.00;99.90;;;;;;5069809;28;20422;-74
2022/10/04 03:28:14;;;;;;;7.10;5.95;;;8.00;99.90;;;;;;5069835;28;20876;-74
2022/10/04 03:30:43;;;;;;;6.30;5.70;;;8.00;99.90;;;;;;5085069;28;20415;-73
2022/10/04 03:33:22;;;;;;;7.22;6.10;;;7.90;99.90;;;;;;5089575;28;20394;-73
2022/10/04 03:35:54;;;;;;;6.77;6.07;;;8.00;99.90;;;;;;5090169;28;20729;-73
2022/10/04 03:38:21;;;;;;;6.70;5.72;;;8.00;99.90;;;;;;5090118;28;20400;-73
2022/10/04 03:40:55;;;;;;;6.27;5.30;;;8.00;99.90;;;;;;5090101;28;20777;-73
2022/10/04 03:43:27;;;;;;;5.90;5.20;;;8.00;99.90;;;;;;5119664;22;20435;-68
2022/10/04 03:45:54;;;;;;;7.53;5.32;;;8.10;99.90;;;;;;5102140;28;20385;-69
2022/10/04 03:48:38;;;;;;;5.30;4.80;;;8.00;99.90;;;;;;5106220;28;20521;-70
2022/10/04 03:51:06;;;;;;;6.05;5.53;;;7.80;99.90;;;;;;5110205;28;20372;-70
2022/10/04 03:53:44;;;;;;;6.00;5.40;;;7.80;99.90;;;;;;5094266;28;20402;-72
2022/10/04 03:56:14;;;;;;;6.43;4.80;;;7.90;99.90;;;;;;5089771;28;20378;-69
2022/10/04 03:58:39;;;;;;;6.13;5.07;;;8.00;99.90;;;;;;5086493;28;20417;-70
2022/10/04 04:01:28;;;;;;;6.60;4.95;;;8.00;99.90;;;;;;5087703;28;20402;-69
2022/10/04 04:03:59;;;;;;;6.22;5.20;;;8.00;99.90;;;;;;5089714;28;20397;-69
2022/10/04 04:06:39;;;;;;;6.72;4.80;;;8.00;99.90;;;;;;5092755;28;20405;-70
2022/10/04 04:09:06;;;;;;;6.75;5.40;;;7.90;99.90;;;;;;5089863;28;20423;-72
2022/10/04 04:11:32;;;;;;;5.50;4.90;;;8.00;99.90;;;;;;5093495;28;20420;-69
2022/10/04 04:14:06;;;;;;;6.88;5.07;;;8.00;99.90;;;;;;5091876;28;20437;-69
2022/10/04 04:16:32;;;;;;;6.00;5.40;;;8.10;99.90;;;;;;5090115;28;20419;-69
2022/10/04 04:19:01;;;;;;;5.00;4.50;;;8.00;99.90;;;;;;5093088;28;20452;-69
2022/10/04 04:21:28;;;;;;;5.88;5.00;;;8.00;99.90;;;;;;5092535;28;20397;-70
2022/10/04 04:24:00;;;;;;;5.20;4.70;;;8.10;99.90;;;;;;5089331;28;20378;-69
2022/10/04 04:26:42;;;;;;;6.10;5.00;;;8.00;99.90;;;;;;5074433;28;20539;-69
2022/10/04 04:29:12;;;;;;;7.20;4.80;;;8.00;99.90;;;;;;5091845;28;20406;-70
2022/10/04 04:31:50;;;;;;;5.43;4.88;;;7.90;99.90;;;;;;5091863;28;20412;-69
2022/10/04 04:34:20;;;;;;;6.57;5.07;;;8.00;99.90;;;;;;5092735;28;21125;-69
2022/10/04 04:36:45;;;;;;;5.30;4.80;;;8.00;99.90;;;;;;5092132;28;20775;-69
2022/10/04 04:42:22;;;;;;;5.10;4.70;;;7.90;99.90;;;;;;5090413;28;20767;-70
2022/10/04 04:45:00;;;;;;;6.28;5.60;;;7.80;99.90;;;;;;5090042;28;20501;-71
2022/10/04 04:47:39;;;;;;;6.50;4.78;;;7.80;99.90;;;;;;5070092;28;20429;-71
2022/10/04 04:50:10;;;;;;;5.57;5.07;;;7.80;99.90;;;;;;5091066;28;20402;-70
2022/10/04 04:52:36;;;;;;;6.13;5.53;;;7.80;99.90;;;;;;5083468;28;20814;-70
2022/10/04 04:55:04;;;;;;;5.80;4.90;;;7.90;99.90;;;;;;5072471;28;20811;-69
2022/10/04 04:57:32;;;;;;;5.55;4.75;;;8.00;99.90;;;;;;5092465;28;20760;-70
2022/10/04 05:00:00;;;;;;;5.53;4.63;;;8.00;99.90;;;;;;5091511;28;20464;-70
2022/10/04 05:02:33;;;;;;;5.20;4.80;;;7.90;99.90;;;;;;5090274;28;20821;-70
2022/10/04 05:05:19;;;;;;;6.28;4.88;;;8.00;99.90;;;;;;5091761;28;20398;-69
2022/10/04 05:07:45;;;;;;;4.90;4.40;;;8.00;99.90;;;;;;5083207;28;20386;-69
2022/10/04 05:10:31;;;;;;;5.78;4.82;;;8.00;99.90;;;;;;5091106;28;20429;-69
2022/10/04 05:13:03;;;;;;;5.30;4.70;;;7.90;99.90;;;;;;5087449;28;20493;-70
2022/10/04 05:15:36;;;;;;;5.22;4.70;;;7.90;99.90;;;;;;5067437;28;20405;-69
2022/10/04 05:18:14;;;;;;;7.10;4.70;;;7.90;99.90;;;;;;5090124;28;20409;-70
2022/10/04 05:20:48;;;;;;;4.85;4.45;;;7.90;99.90;;;;;;5086393;28;20398;-71
2022/10/04 05:23:14;;;;;;;5.25;4.75;;;7.80;99.90;;;;;;5088803;28;20397;-70
2022/10/04 05:25:40;;;;;;;5.40;4.90;;;7.70;99.90;;;;;;5086254;28;20420;-71
2022/10/04 05:28:13;;;;;;;5.47;4.97;;;7.70;99.90;;;;;;5090702;28;20432;-70
2022/10/04 05:31:02;;;;;;;7.10;5.00;;;7.70;99.90;;;;;;5086987;28;20402;-70
2022/10/04 05:33:56;;;;;;;6.00;4.90;;;7.70;99.90;;;;;;5088025;28;20489;-70
2022/10/04 05:36:38;;;;;;;6.18;4.97;;;7.60;99.90;;;;;;5090704;28;20390;-71
2022/10/04 05:39:14;;;;;;;6.45;5.43;;;7.60;99.90;;;;;;5089644;28;20401;-70
2022/10/04 05:42:10;;;;;;;5.70;5.20;;;7.50;99.90;;;;;;5078868;28;20479;-70
2022/10/04 05:44:47;;;;;;;5.82;5.22;;;7.50;99.90;;;;;;5084727;28;20402;-70
2022/10/04 05:47:14;;;;;;;7.32;5.18;;;7.50;99.90;;;;;;5088649;28;20393;-71
2022/10/04 05:49:47;;;;;;;6.68;4.90;;;7.60;99.90;;;;;;5088582;28;20421;-70
2022/10/04 05:52:29;;;;;;;5.85;5.30;;;7.60;99.90;;;;;;5087975;28;20390;-70
2022/10/04 05:55:16;;;;;;;5.65;5.15;;;7.60;99.90;;;;;;5064470;28;20405;-71
2022/10/04 05:58:17;;;;;;;6.07;5.47;;;7.60;99.90;;;;;;5089851;28;20434;-70
2022/10/04 06:01:09;;;;;;;5.38;4.88;;;7.60;99.90;;;;;;5051857;28;20463;-70
2022/10/04 06:03:56;;;;;;;6.95;5.40;;;7.60;99.90;;;;;;5070491;28;20414;-71
2022/10/04 06:06:29;;;;;;;6.18;5.57;;;7.60;99.90;;;;;;5070672;28;20509;-70
2022/10/04 06:09:19;;;;;;;5.80;5.20;;;7.70;99.90;;;;;;5070757;28;20425;-70
2022/10/04 06:12:05;;;;;;;7.13;5.10;;;7.70;99.90;;;;;;5076767;28;20397;-70
2022/10/04 06:14:49;;;;;;;6.47;4.75;;;7.90;99.90;;;;;;5090308;28;20406;-70
2022/10/04 06:17:42;;;;;;;5.43;4.80;;;8.00;99.90;;;;;;5090635;28;20374;-70
2022/10/04 06:20:30;;;;;;;7.20;4.65;;;8.10;99.90;;;;;;5088725;28;20398;-70
2022/10/04 06:23:02;;;;;;;7.30;4.60;;;8.10;99.90;;;;;;5083324;28;20776;-70
2022/10/04 06:25:27;;;;;;;5.43;4.50;;;8.10;99.90;;;;;;5071061;28;20406;-70
2022/10/04 06:28:17;;;;;;;5.70;4.73;;;8.30;99.90;;;;;;5086492;28;20417;-70
2022/10/04 06:31:11;;;;;;;5.97;4.95;;;8.40;99.90;;;;;;5087377;28;20393;-70
2022/10/04 06:33:53;;;;;;;5.60;5.10;;;8.40;99.90;;;;;;5080139;28;20451;-70
2022/10/04 06:36:56;;;;;;;6.70;5.20;;;8.40;99.90;;;;;;5070773;28;20913;-70
2022/10/04 06:39:41;;;;;;;5.15;4.65;;;8.60;99.90;;;;;;5088517;28;20416;-71
2022/10/04 06:42:12;;;;;;;5.60;5.00;;;8.70;99.90;;;;;;5070731;28;20412;-70
2022/10/04 06:45:22;;;;;;;5.30;4.80;;;8.70;99.90;;;;;;5082221;28;20447;-71
2022/10/04 06:48:04;;;;;;;5.55;4.97;;;8.80;99.90;;;;;;5090184;28;20744;-71
2022/10/04 06:50:50;;;;;;;6.78;4.80;;;8.90;99.90;;;;;;5065702;28;20774;-71
2022/10/04 06:53:15;;;;;;;5.82;4.53;;;9.00;99.90;;;;;;5087240;28;20471;-70
2022/10/04 06:55:47;;;;;;;6.55;4.50;;;8.90;99.90;;;;;;5084047;28;20542;-70
2022/10/04 06:58:34;;;;;;;6.80;4.43;;;8.90;99.90;;;;;;5086635;28;20432;-71
2022/10/04 07:01:21;;;;;;;6.80;4.90;;;9.00;99.90;;;;;;5067644;28;20863;-69
2022/10/04 07:04:20;;;;;;;5.30;4.80;;;9.10;99.90;;;;;;5092340;28;20400;-70
2022/10/04 07:07:34;;;;;;;7.85;5.20;;;9.10;99.90;;;;;;5090242;28;20487;-70
2022/10/04 07:10:18;;;;;;;5.60;5.10;;;9.20;99.90;;;;;;5088745;28;20753;-70
2022/10/04 07:12:58;;;;;;;6.72;5.20;;;9.20;99.90;;;;;;5077266;28;20398;-71
2022/10/04 07:15:30;;;;;;;5.93;5.18;;;9.30;99.90;;;;;;5084138;28;20397;-70
2022/10/04 07:18:04;;;;;;;5.30;4.40;;;9.40;99.90;;;;;;5089186;28;20417;-69
2022/10/04 07:20:33;;;;;;;4.97;4.30;;;9.50;99.90;;;;;;5087412;28;20393;-71
2022/10/04 07:23:33;;;;;;;5.05;4.43;;;9.50;99.90;;;;;;5081854;28;20450;-70
2022/10/04 07:26:21;;;;;;;8.02;5.07;;;9.50;99.90;;;;;;5079411;28;20406;-71
2022/10/04 07:31:35;;;;;;;7.60;5.13;;;9.80;99.90;;;;;;5075176;28;20793;-70
2022/10/04 07:34:10;;;;;;;6.88;4.72;;;9.80;99.90;;;;;;5087507;28;20538;-69
2022/10/04 07:36:48;;;;;;;5.82;4.50;;;9.80;99.90;;;;;;5082193;28;20496;-70
2022/10/04 07:39:41;;;;;;;6.28;4.63;;;9.80;99.90;;;;;;5090576;28;20405;-70
2022/10/04 07:42:29;;;;;;;5.53;4.50;;;9.80;99.90;;;;;;5090604;28;20401;-69
2022/10/04 07:45:12;;;;;;;5.00;4.50;;;9.90;99.90;;;;;;5093263;28;20400;-69
2022/10/04 07:47:38;;;;;;;6.30;4.32;;;10.00;99.90;;;;;;5073727;28;20379;-70
2022/10/04 07:50:19;;;;;;;4.78;4.30;;;10.00;99.90;;;;;;5090722;28;20397;-70
2022/10/04 07:52:51;;;;;;;6.40;4.80;;;10.10;99.90;;;;;;5086206;28;20871;-70
2022/10/04 07:55:58;;;;;;;4.70;4.30;;;10.20;99.90;;;;;;5093330;28;20409;-69
2022/10/04 07:58:35;;;;;;;5.30;4.65;;;10.20;99.90;;;;;;5045172;28;20409;-69
2022/10/04 08:01:27;;;;;;;4.97;4.47;;;10.20;99.90;;;;;;5087209;28;20394;-70
2022/10/04 08:03:58;;;;;;;5.30;4.80;;;10.30;99.90;;;;;;5087470;28;20879;-70
2022/10/04 08:06:34;;;;;;;4.80;4.40;;;10.40;99.90;;;;;;5089456;28;20786;-70
2022/10/04 08:09:23;;;;;;;5.32;4.78;;;10.40;99.90;;;;;;5090601;28;20398;-68
2022/10/04 08:12:07;;;;;;;5.78;5.18;;;10.50;99.90;;;;;;5064894;28;20427;-69
2022/10/04 08:14:50;;;;;;;5.28;4.40;;;10.60;99.90;;;;;;5083794;28;20872;-69
2022/10/04 08:18:04;;;;;;;6.38;4.40;;;10.80;99.90;;;;;;5092175;28;20414;-69
2022/10/04 08:20:55;;;;;;;5.30;4.80;;;10.90;99.90;;;;;;5069495;28;20401;-70
2022/10/04 08:23:43;;;;;;;5.90;5.05;;;10.90;99.90;;;;;;5089764;28;20401;-70
2022/10/04 08:26:35;;;;;;;6.20;4.43;;;11.00;99.90;;;;;;5091767;28;20503;-70
2022/10/04 08:29:41;;;;;;;4.70;4.18;;;11.10;99.90;;;;;;5077857;28;20410;-69
2022/10/04 08:32:34;;;;;;;5.07;4.57;;;11.30;99.90;;;;;;5084476;28;20944;-69
2022/10/04 08:35:36;;;;;;;5.50;4.82;;;11.30;99.90;;;;;;5087339;28;20397;-70
2022/10/04 08:38:30;;;;;;;4.80;4.30;;;11.50;99.90;;;;;;5068864;28;20409;-69
2022/10/04 08:41:38;;;;;;;4.70;4.20;;;11.50;99.90;;;;;;5090135;28;20979;-70
2022/10/04 08:44:41;;;;;;;6.93;4.70;;;11.70;99.90;;;;;;5087414;28;20481;-70
2022/10/04 08:47:44;;;;;;;5.73;4.20;;;11.90;99.90;;;;;;5085306;28;20454;-70
2022/10/04 08:50:47;;;;;;;5.43;4.30;;;12.00;99.90;;;;;;5089589;28;20554;-70
2022/10/04 08:53:20;;;;;;;5.27;4.40;;;12.00;99.90;;;;;;5073567;28;20398;-69
2022/10/04 08:56:17;;;;;;;4.93;4.30;;;12.20;99.90;;;;;;5092336;28;20385;-69
2022/10/04 08:59:14;;;;;;;6.00;5.20;;;12.30;99.90;;;;;;5088255;28;20409;-70
2022/10/04 09:01:45;;;;;;;4.32;3.72;;;12.40;99.90;;;;;;5090382;28;20425;-71
2022/10/04 09:04:20;;;;;;;6.43;4.90;;;12.40;99.90;;;;;;5089233;28;20425;-70
2022/10/04 09:06:55;;;;;;;5.00;4.60;;;12.60;99.90;;;;;;5073190;28;20931;-70
2022/10/04 09:09:49;;;;;;;7.50;6.18;;;12.70;99.90;;;;;;5088896;28;20405;-70
2022/10/04 09:12:25;;;;;;;6.68;6.05;;;12.60;99.90;;;;;;5090798;28;20398;-69
2022/10/04 09:15:15;;;;;;;7.20;6.47;;;12.70;99.90;;;;;;5089299;28;20890;-69
2022/10/04 09:18:12;;;;;;;7.35;6.65;;;12.80;99.90;;;;;;5084033;28;20497;-70
2022/10/04 09:21:07;;;;;;;7.07;6.38;;;12.70;99.90;;;;;;5087908;28;20445;-72
2022/10/04 09:23:38;;;;;;;7.13;6.22;;;12.90;99.90;;;;;;5082898;28;20489;-70
2022/10/04 09:26:12;;;;;;;8.13;7.00;;;13.00;99.90;;;;;;5088114;28;20401;-70
2022/10/04 09:28:50;;;;;;;7.45;6.65;;;13.00;99.90;;;;;;5053636;28;20976;-69
2022/10/04 09:31:36;;;;;;;7.45;6.75;;;13.20;99.90;;;;;;5089028;28;20493;-70
2022/10/04 09:34:22;;;;;;;7.18;6.47;;;13.20;99.90;;;;;;5089253;28;20401;-70
2022/10/04 09:37:28;;;;;;;9.13;7.67;;;13.20;99.90;;;;;;5076171;28;21027;-70
2022/10/04 09:40:27;;;;;;;9.20;7.88;;;13.30;99.90;;;;;;5095995;28;20392;-69
2022/10/04 09:43:32;;;;;;;8.50;7.35;;;13.30;99.90;;;;;;5089373;28;20992;-70
2022/10/04 09:46:14;;;;;;;8.10;7.40;;;13.50;99.90;;;;;;5118786;22;20424;-72
2022/10/04 09:49:02;;;;;;;8.70;7.80;;;13.60;99.90;;;;;;5105106;28;20461;-71
2022/10/04 09:51:30;;;;;;;9.45;7.90;;;13.60;99.90;;;;;;5092623;28;20473;-72
2022/10/04 09:54:27;;;;;;;8.55;7.63;;;13.50;99.90;;;;;;5090045;28;20415;-72
2022/10/04 09:57:20;;;;;;;9.93;7.90;;;13.60;99.90;;;;;;5069295;28;20387;-72
2022/10/04 09:59:55;;;;;;;8.93;8.13;;;13.70;99.90;;;;;;5070991;28;20452;-72
2022/10/04 10:02:29;;;;;;;9.52;8.00;;;13.80;99.90;;;;;;5070959;28;20367;-71
2022/10/04 10:05:16;;;;;;;9.38;7.63;;;13.80;99.90;;;;;;5052853;28;20874;-72
2022/10/04 10:08:23;;;;;;;7.78;6.97;;;13.90;99.90;;;;;;5078669;28;20492;-72
2022/10/04 10:14:29;;;;;;;7.70;6.90;;;14.00;99.90;;;;;;5090821;28;20470;-72
2022/10/04 10:17:35;;;;;;;7.20;6.60;;;14.10;99.90;;;;;;5091020;28;20393;-72
2022/10/04 10:20:21;;;;;;;7.03;6.40;;;14.10;99.90;;;;;;5082771;28;20937;-72
2022/10/04 10:23:22;;;;;;;7.03;6.43;;;14.30;99.90;;;;;;5068171;28;20387;-73
2022/10/04 10:26:06;;;;;;;7.20;6.50;;;14.30;99.90;;;;;;5072088;28;20889;-73
2022/10/04 10:28:57;;;;;;;8.48;6.82;;;14.10;99.90;;;;;;5081272;28;20439;-72
2022/10/04 10:31:23;;;;;;;7.55;6.53;;;14.10;99.90;;;;;;5090893;28;20414;-72
2022/10/04 10:33:51;;;;;;;7.17;6.47;;;14.10;99.90;;;;;;5090525;28;20406;-73
2022/10/04 10:36:34;;;;;;;7.25;6.50;;;14.20;99.90;;;;;;5090572;28;20382;-73
2022/10/04 10:39:21;;;;;;;7.80;7.00;;;14.30;99.90;;;;;;5090632;28;20409;-72
2022/10/04 10:42:02;;;;;;;8.65;6.80;;;14.40;99.90;;;;;;5071748;28;20475;-72
2022/10/04 10:45:17;;;;;;;7.10;6.40;;;14.60;99.90;;;;;;5090172;28;20375;-72
2022/10/04 10:47:59;;;;;;;7.30;6.60;;;14.60;99.90;;;;;;5076700;28;20394;-72
2022/10/04 10:50:58;;;;;;;7.90;7.13;;;14.80;99.90;;;;;;5090440;28;20421;-71
2022/10/04 10:53:33;;;;;;;8.93;6.50;;;14.90;99.90;;;;;;5090151;28;20390;-71
2022/10/04 10:56:41;;;;;;;7.13;6.00;;;15.10;99.90;;;;;;5090057;28;20393;-72
2022/10/04 10:59:35;;;;;;;7.25;6.25;;;15.30;99.90;;;;;;5090215;28;20505;-72
2022/10/04 11:02:19;;;;;;;8.07;6.60;;;15.40;99.90;;;;;;5090444;28;20901;-72
2022/10/04 11:05:15;;;;;;;6.68;5.93;;;15.80;99.90;;;;;;5090081;28;20412;-73
2022/10/04 11:07:51;;;;;;;6.47;5.88;;;15.60;99.90;;;;;;5090334;28;20389;-72
2022/10/04 11:10:58;;;;;;;7.10;6.40;;;15.80;99.90;;;;;;5089865;28;20440;-72
2022/10/04 11:14:01;;;;;;;6.63;6.03;;;16.20;99.90;;;;;;5089492;28;20394;-72
2022/10/04 11:16:49;;;;;;;6.27;5.67;;;16.70;99.90;;;;;;5071852;28;20432;-72
2022/10/04 11:19:45;;;;;;;5.57;4.67;;;17.10;99.90;;;;;;5071858;28;20428;-72
2022/10/04 11:22:43;;;;;;;5.30;4.80;;;18.40;99.90;;;;;;5088846;28;20794;-71
2022/10/04 11:25:11;;;;;;;4.30;4.00;;;18.80;99.90;;;;;;5082698;28;20481;-73
2022/10/04 11:27:57;;;;;;;4.53;4.07;;;19.20;99.90;;;;;;5084428;28;20910;-73
2022/10/04 11:30:37;;;;;;;4.50;4.10;;;18.70;99.90;;;;;;5083773;28;20462;-73
2022/10/04 11:33:27;;;;;;;5.00;3.90;;;19.10;99.90;;;;;;5067686;28;20406;-73
2022/10/04 11:36:17;;;;;;;4.70;4.30;;;18.90;99.90;;;;;;5089655;28;20956;-73
2022/10/04 11:38:56;;;;;;;4.75;4.00;;;18.80;99.90;;;;;;5091081;28;20806;-73
2022/10/04 11:41:42;;;;;;;4.95;4.25;;;17.90;99.90;;;;;;5091035;28;20420;-73
2022/10/04 11:44:29;;;;;;;5.30;4.00;;;18.90;99.90;;;;;;5101843;28;20399;-73
2022/10/04 11:47:08;;;;;;;4.53;3.90;;;19.00;99.90;;;;;;5085408;28;20417;-73
2022/10/04 11:49:42;;;;;;;5.25;4.78;;;19.00;99.90;;;;;;5088060;28;20397;-73
2022/10/04 11:52:42;;;;;;;5.55;4.90;;;18.30;99.90;;;;;;5089678;28;20370;-72
2022/10/04 11:55:42;;;;;;;4.32;3.92;;;19.40;99.90;;;;;;5089843;28;20883;-73
2022/10/04 11:58:43;;;;;;;4.60;4.20;;;19.20;99.90;;;;;;5089515;28;20543;-73
2022/10/04 12:01:39;;;;;;;6.60;4.20;;;20.30;99.90;;;;;;5071349;28;20435;-73
2022/10/04 12:04:26;;;;;;;5.10;4.60;;;20.20;99.90;;;;;;5088023;28;20416;-74
2022/10/04 12:07:10;;;;;;;6.65;5.57;;;20.70;99.90;;;;;;5089664;28;20759;-73
2022/10/04 12:09:43;;;;;;;4.85;4.45;;;19.80;99.90;;;;;;5089717;28;20378;-73
2022/10/04 12:12:37;;;;;;;5.63;5.07;;;19.20;99.90;;;;;;5087615;28;20402;-73
2022/10/04 12:15:35;;;;;;;5.20;4.70;;;18.80;99.90;;;;;;5085471;28;20393;-73
2022/10/04 12:18:27;;;;;;;5.90;5.30;;;18.90;99.90;;;;;;5084969;28;20417;-73
2022/10/04 12:21:10;;;;;;;6.20;5.60;;;19.00;99.90;;;;;;5088492;28;20397;-73
2022/10/04 12:24:31;;;;;;;5.28;4.78;;;18.80;99.90;;;;;;5082417;28;20405;-73
2022/10/04 12:27:18;;;;;;;6.15;5.55;;;18.90;99.90;;;;;;5041644;28;20766;-74
2022/10/04 12:30:09;;;;;;;5.72;5.13;;;18.60;99.90;;;;;;5087820;28;20439;-74
2022/10/04 12:32:49;;;;;;;5.30;4.80;;;18.50;99.90;;;;;;5090315;28;20386;-74
2022/10/04 12:35:36;;;;;;;5.40;4.90;;;18.60;99.90;;;;;;5085266;28;20415;-74
2022/10/04 12:38:14;;;;;;;5.90;5.30;;;18.00;99.90;;;;;;5079983;28;20463;-73
2022/10/04 12:40:58;;;;;;;6.90;5.18;;;18.40;99.90;;;;;;5074612;28;20390;-74
2022/10/04 12:43:37;;;;;;;6.10;5.50;;;18.50;99.90;;;;;;5079695;28;20440;-74
2022/10/04 12:46:20;;;;;;;5.53;5.03;;;18.40;99.90;;;;;;5068001;28;20471;-74
2022/10/04 12:48:59;;;;;;;6.05;5.45;;;18.40;99.90;;;;;;5085122;28;20486;-73
2022/10/04 12:51:28;;;;;;;6.55;5.32;;;18.90;99.90;;;;;;5088687;28;20397;-74
2022/10/04 12:54:19;;;;;;;5.38;4.88;;;19.00;99.90;;;;;;5084738;28;20401;-74
2022/10/04 12:57:02;;;;;;;5.60;4.93;;;19.00;99.90;;;;;;5083244;28;20386;-74
2022/10/04 12:59:31;;;;;;;5.38;4.88;;;19.20;99.90;;;;;;5092471;28;20406;-73
2022/10/04 13:02:01;;;;;;;6.25;5.65;;;19.40;99.90;;;;;;5092509;28;20710;-74
2022/10/04 13:04:44;;;;;;;5.60;4.22;;;19.80;99.90;;;;;;5088182;28;20827;-74
2022/10/04 13:07:22;;;;;;;4.60;4.10;;;19.90;99.90;;;;;;5092025;28;20480;-74
2022/10/04 13:10:11;;;;;;;4.65;4.07;;;19.00;99.90;;;;;;5092384;28;20810;-74
2022/10/04 13:13:02;;;;;;;4.32;3.92;;;19.80;99.90;;;;;;5091951;28;20379;-73
2022/10/04 13:15:33;;;;;;;4.60;4.10;;;19.30;99.90;;;;;;5092256;28;20434;-73
2022/10/04 13:18:20;;;;;;;5.03;4.63;;;19.60;99.90;;;;;;5092097;28;20627;-74
2022/10/04 13:21:41;;;;;;;5.85;5.00;;;19.60;99.90;;;;;;5091965;28;20405;-73
2022/10/04 13:24:16;;;;;;;5.30;4.30;;;19.40;99.90;;;;;;5018890;28;20406;-74
2022/10/04 13:26:48;;;;;;;4.63;4.22;;;19.60;99.90;;;;;;5071824;28;20414;-73
2022/10/04 13:29:28;;;;;;;4.80;4.20;;;19.40;99.90;;;;;;5071828;28;20433;-74
2022/10/04 13:32:13;;;;;;;4.90;4.40;;;19.50;99.90;;;;;;5054665;28;20437;-73
2022/10/04 13:34:54;;;;;;;4.45;4.03;;;20.00;99.90;;;;;;5085434;28;20397;-74
2022/10/04 13:37:29;;;;;;;4.53;4.13;;;19.90;99.90;;;;;;5070923;28;20923;-74
2022/10/04 13:40:17;;;;;;;7.88;4.40;;;20.20;99.90;;;;;;5078150;28;20402;-74
2022/10/04 13:42:58;;;;;;;5.20;4.70;;;20.10;99.90;;;;;;5085687;28;20400;-74
2022/10/04 13:45:35;;;;;;;4.10;3.70;;;20.40;99.90;;;;;;5086348;28;20467;-73
2022/10/04 13:48:36;;;;;;;5.15;4.40;;;20.10;99.90;;;;;;5081163;28;20396;-74
2022/10/04 13:51:16;;;;;;;5.00;4.40;;;20.00;99.90;;;;;;5049612;28;20390;-72
2022/10/04 13:56:57;;;;;;;4.78;4.32;;;19.80;99.90;;;;;;5086597;28;20393;-72
2022/10/04 14:00:01;;;;;;;4.72;4.22;;;19.20;99.90;;;;;;5083223;28;20406;-72
2022/10/04 14:02:42;;;;;;;5.07;4.00;;;19.50;99.90;;;;;;5072658;28;20398;-73
2022/10/04 14:05:26;;;;;;;4.40;4.00;;;19.80;99.90;;;;;;5084620;28;20480;-74
2022/10/04 14:08:35;;;;;;;6.13;4.60;;;19.80;99.90;;;;;;5088299;28;20463;-74
2022/10/04 14:11:10;;;;;;;4.20;3.80;;;19.80;99.90;;;;;;5032156;28;20421;-72
2022/10/04 14:13:44;;;;;;;4.30;3.88;;;20.00;99.90;;;;;;5079443;28;20538;-72
2022/10/04 14:16:34;;;;;;;4.20;3.80;;;19.50;99.90;;;;;;5080795;28;20407;-72
2022/10/04 14:19:19;;;;;;;4.50;4.10;;;19.30;99.90;;;;;;5071325;28;20429;-72
2022/10/04 14:22:12;;;;;;;4.63;4.22;;;19.80;99.90;;;;;;5081587;28;20420;-72